Flight Track Log - Related Links

Times and Time Zones

All times are in EDT time to prevent confusion due to time zone crossing. See the SWA1017 flight status page for this flight to view local times or setup timezone preferences in your user account.

Time Position Orientation Groundspeed Altitude Reporting Facility
EDT Latitude Longitude Course Direction KTS MPH feet Rate Location/Type
Tue 02:59:34 PM 26.2233 -97.6047 10° North 207 238 2,800  Level Houston Center
Tue 03:00:11 PM 26.2597 -97.5989 North 210 242 4,700 2,557 Climbing Houston Center
Tue 03:00:35 PM 26.2833 -97.5967 North 239 275 5,400 3,048 Climbing Houston Center
Tue 03:01:14 PM 26.3375 -97.5908 North 266 306 7,900 3,564 Climbing Houston Center
Tue 03:02:16 PM 26.4189 -97.5825 North 291 335 11,400 3,484 Climbing Houston Center
Tue 03:03:18 PM 26.5208 -97.5739 North 337 388 15,100 3,677 Climbing Houston Center
Tue 03:04:00 PM 26.7817 -97.5703 10° North  Level FlightAware Approximate
Tue 03:04:20 PM 26.6211 -97.5642 North 359 413 19,000  Level Houston Center
Tue 03:05:22 PM 26.7244 -97.5533 North 382 440 21,900 2,371 Climbing Houston Center
Tue 03:06:24 PM 26.8472 -97.5422 North 415 478 23,900 2,244 Climbing Houston Center
Tue 03:07:25 PM 26.9636 -97.5328 North 405 466 26,500 2,390 Climbing Houston Center
Tue 03:08:27 PM 27.0861 -97.5561 350° North 426 490 28,800 2,226 Climbing Houston Center
Tue 03:09:29 PM 27.2006 -97.6006 341° North 424 488 31,100 2,323 Climbing Houston Center
Tue 03:10:31 PM 27.3158 -97.6392 343° North 430 495 33,600 1,403 Climbing Houston Center
Tue 03:11:33 PM 27.4289 -97.6772 343° North 426 490 34,000 194 Climbing Houston Center
Tue 03:12:35 PM 27.5392 -97.7172 342° North 419 482 34,000  Level Houston Center
Tue 03:13:37 PM 27.6522 -97.7556 343° North 423 487 34,000  Level Houston Center
Tue 03:14:39 PM 27.7853 -97.8014 343° North 420 483 34,000  Level Houston Center
Tue 03:15:41 PM 27.8969 -97.8400 343° North 420 483 34,000  Level Houston Center
Tue 03:16:43 PM 28.0094 -97.8797 343° North 423 487 34,000  Level Houston Center
Tue 03:17:45 PM 28.1231 -97.9197 343° North 427 491 34,000  Level Houston Center
Tue 03:18:47 PM 28.2514 -97.9644 343° North 425 489 34,000  Level Houston Center
Tue 03:19:49 PM 28.3633 -98.0039 343° North 422 486 34,000  Level Houston Center
Tue 03:20:51 PM 28.4744 -98.0433 343° North 419 482 34,000  Level Houston Center
Tue 03:21:52 PM 28.5856 -98.0828 343° North 418 481 34,000  Level Houston Center
Tue 03:22:54 PM 28.6983 -98.1225 343° North 420 483 34,000  Level Houston Center
Tue 03:23:56 PM 28.8294 -98.1686 343° North 423 487 34,000  Level Houston Center
Tue 03:24:58 PM 28.9403 -98.2097 342° North 419 482 34,000  Level Houston Center
Tue 03:26:00 PM 29.0594 -98.2514 343° North 415 478 34,000  Level Houston Center
Tue 03:27:02 PM 29.1692 -98.2908 343° North 414 476 34,000 -484 Level Houston Center
Tue 03:28:04 PM 29.2881 -98.3328 343° North 413 475 33,000 -1,694 Descending Houston Center
Tue 03:29:06 PM 29.3947 -98.3714 342° North 405 466 30,500 -2,177 Descending Houston Center
Tue 03:30:08 PM 29.5000 -98.4081 343° North 397 457 28,500 -2,274 Descending Houston Center
Tue 03:31:10 PM 29.5931 -98.4428 342° North 389 448 25,800 -2,516 Descending Houston Center
Tue 03:32:12 PM 29.7119 -98.4133 12° North 376 433 23,300 -2,146 Descending Houston Center
Tue 03:33:13 PM 29.8072 -98.3814 16° North 357 411 21,400 -1,756 Descending Houston Center
Tue 03:34:15 PM 29.9000 -98.3578 12° North 343 395 19,700 -1,790 Descending Houston Center
Tue 03:35:17 PM 29.9742 -98.2797 42° Northeast 340 391 17,700 -1,839 Descending Houston Center
Tue 03:36:19 PM 30.0403 -98.2053 44° Northeast 332 382 15,900 -1,742 Descending Houston Center
Tue 03:37:21 PM 30.1078 -98.1283 45° Northeast 316 364 14,100 -1,403 Descending Houston Center
Tue 03:38:23 PM 30.1300 -98.0303 75° East 317 365 13,000 -1,500 Descending Houston Center
Tue 03:39:25 PM 30.1453 -97.9342 80° East 306 352 11,000 -2,081 Descending Houston Center
Tue 03:40:27 PM 30.1628 -97.8369 78° East 298 343 8,700 -2,226 Descending Houston Center
Tue 03:41:29 PM 30.2236 -97.7897 34° Northeast 301 346 6,400 -1,548 Descending Houston Center
Tue 03:42:31 PM 30.2969 -97.7886 North 270 311 5,500 -927 Descending Houston Center
Tue 03:43:32 PM 30.3631 -97.7928 357° North 240 276 4,500 -1,073 Descending Houston Center
Tue 03:44:34 PM 30.3950 -97.7461 52° Northeast 236 272 3,300 -726 Descending Houston Center
Tue 03:45:36 PM 30.3592 -97.6914 127° Southeast 220 253 3,000 -435 Descending Houston Center
Tue 03:46:38 PM 30.3081 -97.6817 171° South 200 230 2,400 -726 Descending Houston Center
Tue 03:47:40 PM 30.2600 -97.6811 179° South 165 190 1,500 -581 Descending Houston Center
Tue 03:48:42 PM 30.2231 -97.6786 177° South 151 174 1,200 -290 Descending Houston Center

Login

Don't have an account? Register now (free) for customized features, flight alerts, and more!